aviador You're here:

MMMZ Decoded Metar

MAZATLAN in MEXICO
Report Time2017-11-20 22:47:00
UTC Time2017-11-20 23:06:31
Flight Rules vfr VFR
Wind280° at 08 kt
W.Decomp.*RWY 26: 7.9 kt HW 1.5 kt RCW
W.Rank280° ranks 10
Current wind is above 280° avg. (7.3)
Visibility9999 m
Phenomena:N/A
Clouds:N/A
Expected CloudBase > 2,400 ft AGL from Temp-Dew spread
CeilingNone
Temp28°C (ISA +13)
Dew Point22°C (70% RH)
Heat Index30.7°C
QNH1012 hPa
Density Alt1,919 ft
Elevation33 ft
Report Wrong Elevation
Raw Report
MMMZ 202247Z 28008KT 10SM SKC 28/22 A2987 RMK ISOL CI=

Extra information for MMMZ:More info

Metar Taf Metar & Taf Last 4 Metars F.Rules Stats Wind Profile Meteogram Temp Stats Airport Information Weather charts Add Link Nearby VenuesMetar ALERT Operation Metar Decoded Social comments